sensor_id;sensor_type;location;lat;lon;timestamp;P1;durP1;ratioP1;P2;durP2;ratioP2
1993;SDS011;998;49.906;10.908;2022-07-30T00:05:03;10.03;;;6.20;;
1993;SDS011;998;49.906;10.908;2022-07-30T00:08:04;7.93;;;6.03;;
1993;SDS011;998;49.906;10.908;2022-07-30T00:11:20;12.50;;;7.03;;
1993;SDS011;998;49.906;10.908;2022-07-30T00:21:39;8.73;;;6.53;;
1993;SDS011;998;49.906;10.908;2022-07-30T00:28:36;8.20;;;6.27;;
1993;SDS011;998;49.906;10.908;2022-07-30T00:31:40;6.70;;;5.40;;
1993;SDS011;998;49.906;10.908;2022-07-30T00:34:55;7.93;;;6.33;;
1993;SDS011;998;49.906;10.908;2022-07-30T00:51:27;8.23;;;5.53;;
1993;SDS011;998;49.906;10.908;2022-07-30T00:54:46;6.60;;;5.20;;
1993;SDS011;998;49.906;10.908;2022-07-30T00:58:21;7.37;;;5.30;;
1993;SDS011;998;49.906;10.908;2022-07-30T01:02:45;12.53;;;7.17;;
1993;SDS011;998;49.906;10.908;2022-07-30T01:06:20;12.23;;;6.83;;
1993;SDS011;998;49.906;10.908;2022-07-30T01:32:10;7.63;;;6.10;;
1993;SDS011;998;49.906;10.908;2022-07-30T02:51:19;9.63;;;7.20;;
1993;SDS011;998;49.906;10.908;2022-07-30T02:57:49;11.27;;;7.60;;
1993;SDS011;998;49.906;10.908;2022-07-30T03:04:17;10.20;;;7.70;;
1993;SDS011;998;49.906;10.908;2022-07-30T04:52:46;5.87;;;4.37;;
1993;SDS011;998;49.906;10.908;2022-07-30T05:21:04;5.07;;;3.90;;
1993;SDS011;998;49.906;10.908;2022-07-30T05:23:23;4.77;;;3.70;;
1993;SDS011;998;49.906;10.908;2022-07-30T05:29:08;7.53;;;4.20;;
1993;SDS011;998;49.906;10.908;2022-07-30T05:33:08;4.90;;;3.80;;
1993;SDS011;998;49.906;10.908;2022-07-30T05:35:43;6.67;;;3.50;;
1993;SDS011;998;49.906;10.908;2022-07-30T05:38:37;4.40;;;3.47;;
1993;SDS011;998;49.906;10.908;2022-07-30T05:43:10;4.70;;;3.77;;
1993;SDS011;998;49.906;10.908;2022-07-30T05:58:33;6.30;;;3.80;;
1993;SDS011;998;49.906;10.908;2022-07-30T06:08:18;5.10;;;4.20;;
1993;SDS011;998;49.906;10.908;2022-07-30T06:21:16;4.50;;;3.67;;
1993;SDS011;998;49.906;10.908;2022-07-30T06:24:16;4.30;;;3.20;;
1993;SDS011;998;49.906;10.908;2022-07-30T06:27:30;5.70;;;3.53;;
1993;SDS011;998;49.906;10.908;2022-07-30T06:30:38;4.53;;;3.57;;
1993;SDS011;998;49.906;10.908;2022-07-30T06:33:32;6.23;;;3.93;;
1993;SDS011;998;49.906;10.908;2022-07-30T06:36:21;4.90;;;3.97;;
1993;SDS011;998;49.906;10.908;2022-07-30T06:38:57;5.30;;;4.33;;
1993;SDS011;998;49.906;10.908;2022-07-30T06:41:27;7.30;;;3.63;;
1993;SDS011;998;49.906;10.908;2022-07-30T06:43:54;4.60;;;3.90;;
1993;SDS011;998;49.906;10.908;2022-07-30T06:46:22;5.27;;;4.57;;
1993;SDS011;998;49.906;10.908;2022-07-30T06:48:49;6.63;;;4.50;;
1993;SDS011;998;49.906;10.908;2022-07-30T06:51:16;5.20;;;4.17;;
1993;SDS011;998;49.906;10.908;2022-07-30T06:53:44;5.47;;;4.20;;
1993;SDS011;998;49.906;10.908;2022-07-30T06:56:11;5.73;;;4.20;;
1993;SDS011;998;49.906;10.908;2022-07-30T06:58:38;5.90;;;4.63;;
1993;SDS011;998;49.906;10.908;2022-07-30T07:01:05;9.30;;;4.80;;
1993;SDS011;998;49.906;10.908;2022-07-30T07:03:32;5.40;;;4.73;;
1993;SDS011;998;49.906;10.908;2022-07-30T07:05:59;4.70;;;4.10;;
1993;SDS011;998;49.906;10.908;2022-07-30T07:08:25;5.00;;;4.50;;
1993;SDS011;998;49.906;10.908;2022-07-30T07:10:54;7.93;;;4.77;;
1993;SDS011;998;49.906;10.908;2022-07-30T07:13:20;5.80;;;4.67;;
1993;SDS011;998;49.906;10.908;2022-07-30T07:15:47;5.33;;;4.50;;
1993;SDS011;998;49.906;10.908;2022-07-30T07:18:14;7.43;;;4.90;;
1993;SDS011;998;49.906;10.908;2022-07-30T07:20:41;4.53;;;3.53;;
1993;SDS011;998;49.906;10.908;2022-07-30T07:23:10;8.50;;;3.93;;
1993;SDS011;998;49.906;10.908;2022-07-30T07:25:37;5.00;;;3.90;;
1993;SDS011;998;49.906;10.908;2022-07-30T07:28:05;5.00;;;4.20;;
1993;SDS011;998;49.906;10.908;2022-07-30T07:30:33;5.10;;;4.10;;
1993;SDS011;998;49.906;10.908;2022-07-30T07:32:59;4.97;;;4.00;;
1993;SDS011;998;49.906;10.908;2022-07-30T07:35:26;4.70;;;3.63;;
1993;SDS011;998;49.906;10.908;2022-07-30T07:37:53;4.53;;;4.03;;
1993;SDS011;998;49.906;10.908;2022-07-30T07:40:20;4.30;;;3.50;;
1993;SDS011;998;49.906;10.908;2022-07-30T07:42:47;5.30;;;3.70;;
1993;SDS011;998;49.906;10.908;2022-07-30T07:45:15;5.77;;;4.90;;
1993;SDS011;998;49.906;10.908;2022-07-30T07:47:42;5.23;;;4.17;;
1993;SDS011;998;49.906;10.908;2022-07-30T07:50:13;4.30;;;3.90;;
1993;SDS011;998;49.906;10.908;2022-07-30T07:52:46;4.47;;;3.80;;
1993;SDS011;998;49.906;10.908;2022-07-30T07:55:13;4.90;;;4.13;;
1993;SDS011;998;49.906;10.908;2022-07-30T07:57:41;5.83;;;4.13;;
1993;SDS011;998;49.906;10.908;2022-07-30T08:00:10;9.70;;;4.60;;
1993;SDS011;998;49.906;10.908;2022-07-30T08:02:41;6.00;;;4.37;;
1993;SDS011;998;49.906;10.908;2022-07-30T08:05:08;5.57;;;4.23;;
1993;SDS011;998;49.906;10.908;2022-07-30T08:07:36;4.70;;;3.70;;
1993;SDS011;998;49.906;10.908;2022-07-30T08:10:04;4.73;;;4.23;;
1993;SDS011;998;49.906;10.908;2022-07-30T08:12:32;5.33;;;3.83;;
1993;SDS011;998;49.906;10.908;2022-07-30T08:14:58;5.60;;;4.60;;
1993;SDS011;998;49.906;10.908;2022-07-30T08:17:25;4.80;;;4.30;;
1993;SDS011;998;49.906;10.908;2022-07-30T08:19:56;4.80;;;4.00;;
1993;SDS011;998;49.906;10.908;2022-07-30T08:22:24;5.07;;;3.90;;
1993;SDS011;998;49.906;10.908;2022-07-30T08:24:51;5.60;;;5.00;;
1993;SDS011;998;49.906;10.908;2022-07-30T08:27:18;5.00;;;4.50;;
1993;SDS011;998;49.906;10.908;2022-07-30T08:29:44;6.07;;;4.10;;
1993;SDS011;998;49.906;10.908;2022-07-30T08:32:11;4.20;;;3.80;;
1993;SDS011;998;49.906;10.908;2022-07-30T08:34:38;5.47;;;4.23;;
1993;SDS011;998;49.906;10.908;2022-07-30T08:37:06;5.40;;;4.47;;
1993;SDS011;998;49.906;10.908;2022-07-30T08:39:33;5.70;;;4.97;;
1993;SDS011;998;49.906;10.908;2022-07-30T08:42:00;6.00;;;4.97;;
1993;SDS011;998;49.906;10.908;2022-07-30T08:44:29;5.70;;;4.93;;
1993;SDS011;998;49.906;10.908;2022-07-30T08:46:57;6.73;;;5.30;;
1993;SDS011;998;49.906;10.908;2022-07-30T08:49:25;6.60;;;4.97;;
1993;SDS011;998;49.906;10.908;2022-07-30T08:51:52;5.90;;;5.20;;
1993;SDS011;998;49.906;10.908;2022-07-30T08:54:21;4.97;;;4.47;;
1993;SDS011;998;49.906;10.908;2022-07-30T08:56:48;8.93;;;4.87;;
1993;SDS011;998;49.906;10.908;2022-07-30T08:59:15;5.07;;;4.40;;
1993;SDS011;998;49.906;10.908;2022-07-30T09:01:42;8.43;;;4.40;;
1993;SDS011;998;49.906;10.908;2022-07-30T09:04:09;4.60;;;4.00;;
1993;SDS011;998;49.906;10.908;2022-07-30T09:06:36;6.33;;;4.40;;
1993;SDS011;998;49.906;10.908;2022-07-30T09:09:04;5.67;;;5.07;;
1993;SDS011;998;49.906;10.908;2022-07-30T09:11:33;5.63;;;4.57;;
1993;SDS011;998;49.906;10.908;2022-07-30T09:14:06;7.40;;;4.10;;
1993;SDS011;998;49.906;10.908;2022-07-30T09:16:34;5.47;;;4.80;;
1993;SDS011;998;49.906;10.908;2022-07-30T09:19:10;6.20;;;4.23;;
1993;SDS011;998;49.906;10.908;2022-07-30T09:21:38;7.00;;;4.40;;
1993;SDS011;998;49.906;10.908;2022-07-30T09:24:06;7.20;;;4.30;;
1993;SDS011;998;49.906;10.908;2022-07-30T09:29:19;5.30;;;4.73;;
1993;SDS011;998;49.906;10.908;2022-07-30T09:31:54;7.50;;;4.00;;
1993;SDS011;998;49.906;10.908;2022-07-30T09:34:22;6.27;;;4.33;;
1993;SDS011;998;49.906;10.908;2022-07-30T09:36:50;4.90;;;3.53;;
1993;SDS011;998;49.906;10.908;2022-07-30T09:39:27;6.53;;;3.90;;
1993;SDS011;998;49.906;10.908;2022-07-30T09:41:56;5.73;;;4.40;;
1993;SDS011;998;49.906;10.908;2022-07-30T09:44:23;5.10;;;3.20;;
1993;SDS011;998;49.906;10.908;2022-07-30T09:46:51;7.43;;;3.27;;
1993;SDS011;998;49.906;10.908;2022-07-30T09:49:19;4.50;;;3.43;;
1993;SDS011;998;49.906;10.908;2022-07-30T09:51:47;7.80;;;3.70;;
1993;SDS011;998;49.906;10.908;2022-07-30T09:54:14;5.53;;;3.30;;
1993;SDS011;998;49.906;10.908;2022-07-30T09:56:41;4.37;;;3.33;;
1993;SDS011;998;49.906;10.908;2022-07-30T10:01:54;4.03;;;3.00;;
1993;SDS011;998;49.906;10.908;2022-07-30T10:04:22;4.70;;;3.60;;
1993;SDS011;998;49.906;10.908;2022-07-30T10:06:50;4.40;;;3.30;;
1993;SDS011;998;49.906;10.908;2022-07-30T10:09:23;5.30;;;3.60;;
1993;SDS011;998;49.906;10.908;2022-07-30T10:11:51;4.60;;;2.90;;
1993;SDS011;998;49.906;10.908;2022-07-30T10:14:20;4.50;;;3.20;;
1993;SDS011;998;49.906;10.908;2022-07-30T10:16:51;5.43;;;3.13;;
1993;SDS011;998;49.906;10.908;2022-07-30T10:19:18;5.17;;;3.23;;
1993;SDS011;998;49.906;10.908;2022-07-30T10:21:45;7.17;;;3.33;;
1993;SDS011;998;49.906;10.908;2022-07-30T10:24:15;5.70;;;3.50;;
1993;SDS011;998;49.906;10.908;2022-07-30T10:26:42;5.83;;;3.37;;
1993;SDS011;998;49.906;10.908;2022-07-30T10:29:11;3.80;;;3.00;;
1993;SDS011;998;49.906;10.908;2022-07-30T10:31:40;4.30;;;2.70;;
1993;SDS011;998;49.906;10.908;2022-07-30T10:34:08;5.43;;;3.20;;
1993;SDS011;998;49.906;10.908;2022-07-30T10:36:36;4.73;;;2.60;;
1993;SDS011;998;49.906;10.908;2022-07-30T10:39:06;4.90;;;2.90;;
1993;SDS011;998;49.906;10.908;2022-07-30T10:41:39;3.47;;;2.60;;
1993;SDS011;998;49.906;10.908;2022-07-30T10:47:04;4.80;;;2.60;;
1993;SDS011;998;49.906;10.908;2022-07-30T10:49:34;4.70;;;3.23;;
1993;SDS011;998;49.906;10.908;2022-07-30T10:52:01;3.83;;;2.20;;
1993;SDS011;998;49.906;10.908;2022-07-30T10:54:35;4.93;;;3.47;;
1993;SDS011;998;49.906;10.908;2022-07-30T10:57:07;4.13;;;2.40;;
1993;SDS011;998;49.906;10.908;2022-07-30T11:02:37;4.00;;;2.20;;
1993;SDS011;998;49.906;10.908;2022-07-30T11:05:24;4.40;;;2.33;;
1993;SDS011;998;49.906;10.908;2022-07-30T11:07:52;4.83;;;2.27;;
1993;SDS011;998;49.906;10.908;2022-07-30T11:10:36;4.73;;;2.37;;
1993;SDS011;998;49.906;10.908;2022-07-30T11:13:04;5.50;;;3.97;;
1993;SDS011;998;49.906;10.908;2022-07-30T11:18:17;3.40;;;2.07;;
1993;SDS011;998;49.906;10.908;2022-07-30T11:21:12;3.80;;;2.37;;
1993;SDS011;998;49.906;10.908;2022-07-30T11:23:39;3.03;;;2.00;;
1993;SDS011;998;49.906;10.908;2022-07-30T11:26:07;3.67;;;2.23;;
1993;SDS011;998;49.906;10.908;2022-07-30T11:28:38;4.07;;;2.87;;
1993;SDS011;998;49.906;10.908;2022-07-30T11:37:05;4.43;;;2.60;;
1993;SDS011;998;49.906;10.908;2022-07-30T11:42:34;4.30;;;2.77;;
1993;SDS011;998;49.906;10.908;2022-07-30T11:45:18;3.80;;;2.57;;
1993;SDS011;998;49.906;10.908;2022-07-30T11:47:54;6.23;;;2.13;;
1993;SDS011;998;49.906;10.908;2022-07-30T11:50:22;3.17;;;2.23;;
1993;SDS011;998;49.906;10.908;2022-07-30T11:52:51;3.27;;;2.10;;
1993;SDS011;998;49.906;10.908;2022-07-30T11:55:22;5.30;;;2.20;;
1993;SDS011;998;49.906;10.908;2022-07-30T11:57:51;3.50;;;1.93;;
1993;SDS011;998;49.906;10.908;2022-07-30T12:00:19;4.20;;;2.43;;
1993;SDS011;998;49.906;10.908;2022-07-30T12:02:46;5.40;;;2.53;;
1993;SDS011;998;49.906;10.908;2022-07-30T12:05:13;7.77;;;2.20;;
1993;SDS011;998;49.906;10.908;2022-07-30T12:07:40;3.80;;;2.27;;
1993;SDS011;998;49.906;10.908;2022-07-30T12:10:12;6.53;;;3.70;;
1993;SDS011;998;49.906;10.908;2022-07-30T12:12:40;4.60;;;2.10;;
1993;SDS011;998;49.906;10.908;2022-07-30T12:15:08;5.37;;;2.87;;
1993;SDS011;998;49.906;10.908;2022-07-30T12:17:42;6.53;;;2.47;;
1993;SDS011;998;49.906;10.908;2022-07-30T12:20:14;4.73;;;2.53;;
1993;SDS011;998;49.906;10.908;2022-07-30T12:22:41;5.63;;;2.90;;
1993;SDS011;998;49.906;10.908;2022-07-30T12:25:09;5.43;;;2.83;;
1993;SDS011;998;49.906;10.908;2022-07-30T12:27:38;5.37;;;2.60;;
1993;SDS011;998;49.906;10.908;2022-07-30T12:30:05;3.63;;;2.53;;
1993;SDS011;998;49.906;10.908;2022-07-30T12:32:34;4.47;;;2.70;;
1993;SDS011;998;49.906;10.908;2022-07-30T12:35:02;5.07;;;2.73;;
1993;SDS011;998;49.906;10.908;2022-07-30T12:37:29;5.50;;;2.37;;
1993;SDS011;998;49.906;10.908;2022-07-30T12:40:06;4.00;;;2.63;;
1993;SDS011;998;49.906;10.908;2022-07-30T12:42:35;3.87;;;2.73;;
1993;SDS011;998;49.906;10.908;2022-07-30T12:45:05;5.93;;;4.00;;
1993;SDS011;998;49.906;10.908;2022-07-30T12:47:32;5.10;;;2.97;;
1993;SDS011;998;49.906;10.908;2022-07-30T12:50:00;4.33;;;3.00;;
1993;SDS011;998;49.906;10.908;2022-07-30T12:52:30;5.37;;;3.90;;
1993;SDS011;998;49.906;10.908;2022-07-30T12:54:59;5.87;;;3.30;;
1993;SDS011;998;49.906;10.908;2022-07-30T13:00:19;7.93;;;3.83;;
1993;SDS011;998;49.906;10.908;2022-07-30T13:02:47;5.57;;;2.93;;
1993;SDS011;998;49.906;10.908;2022-07-30T13:05:14;6.57;;;3.27;;
1993;SDS011;998;49.906;10.908;2022-07-30T13:07:51;4.33;;;2.83;;
1993;SDS011;998;49.906;10.908;2022-07-30T13:10:22;7.50;;;3.33;;
1993;SDS011;998;49.906;10.908;2022-07-30T13:12:49;3.77;;;2.77;;
1993;SDS011;998;49.906;10.908;2022-07-30T13:15:19;5.27;;;2.67;;
1993;SDS011;998;49.906;10.908;2022-07-30T13:17:47;4.30;;;2.60;;
1993;SDS011;998;49.906;10.908;2022-07-30T13:20:15;6.37;;;2.63;;
1993;SDS011;998;49.906;10.908;2022-07-30T13:22:42;3.63;;;2.47;;
1993;SDS011;998;49.906;10.908;2022-07-30T13:25:10;5.20;;;2.80;;
1993;SDS011;998;49.906;10.908;2022-07-30T13:27:38;3.90;;;2.70;;
1993;SDS011;998;49.906;10.908;2022-07-30T13:30:05;6.50;;;3.43;;
1993;SDS011;998;49.906;10.908;2022-07-30T13:32:35;5.33;;;3.57;;
1993;SDS011;998;49.906;10.908;2022-07-30T13:35:03;6.20;;;3.43;;
1993;SDS011;998;49.906;10.908;2022-07-30T13:37:31;6.67;;;3.43;;
1993;SDS011;998;49.906;10.908;2022-07-30T13:39:58;6.70;;;3.80;;
1993;SDS011;998;49.906;10.908;2022-07-30T13:42:25;6.00;;;3.77;;
1993;SDS011;998;49.906;10.908;2022-07-30T13:44:53;6.23;;;3.20;;
1993;SDS011;998;49.906;10.908;2022-07-30T13:47:20;9.13;;;4.37;;
1993;SDS011;998;49.906;10.908;2022-07-30T13:49:49;6.70;;;3.70;;
1993;SDS011;998;49.906;10.908;2022-07-30T13:52:16;5.73;;;3.20;;
1993;SDS011;998;49.906;10.908;2022-07-30T13:54:43;9.27;;;5.30;;
1993;SDS011;998;49.906;10.908;2022-07-30T13:57:10;3.97;;;2.97;;
1993;SDS011;998;49.906;10.908;2022-07-30T13:59:37;3.20;;;2.10;;
1993;SDS011;998;49.906;10.908;2022-07-30T14:02:05;5.50;;;3.20;;
1993;SDS011;998;49.906;10.908;2022-07-30T14:04:32;3.20;;;2.13;;
1993;SDS011;998;49.906;10.908;2022-07-30T14:07:01;5.40;;;2.73;;
1993;SDS011;998;49.906;10.908;2022-07-30T14:09:29;5.13;;;2.40;;
1993;SDS011;998;49.906;10.908;2022-07-30T14:11:59;5.83;;;2.70;;
1993;SDS011;998;49.906;10.908;2022-07-30T14:14:25;9.17;;;2.70;;
1993;SDS011;998;49.906;10.908;2022-07-30T14:16:52;5.37;;;2.67;;
1993;SDS011;998;49.906;10.908;2022-07-30T14:19:19;7.80;;;3.20;;
1993;SDS011;998;49.906;10.908;2022-07-30T14:21:46;5.13;;;2.13;;
1993;SDS011;998;49.906;10.908;2022-07-30T14:24:14;6.00;;;3.03;;
1993;SDS011;998;49.906;10.908;2022-07-30T14:26:41;5.13;;;2.60;;
1993;SDS011;998;49.906;10.908;2022-07-30T14:29:08;4.30;;;2.50;;
1993;SDS011;998;49.906;10.908;2022-07-30T14:35:51;4.53;;;2.37;;
1993;SDS011;998;49.906;10.908;2022-07-30T14:48:39;6.67;;;3.63;;
1993;SDS011;998;49.906;10.908;2022-07-30T14:54:10;4.10;;;3.10;;
1993;SDS011;998;49.906;10.908;2022-07-30T14:57:16;5.30;;;3.13;;
1993;SDS011;998;49.906;10.908;2022-07-30T15:00:20;9.20;;;3.33;;
1993;SDS011;998;49.906;10.908;2022-07-30T15:02:53;4.37;;;3.40;;
1993;SDS011;998;49.906;10.908;2022-07-30T15:09:36;6.20;;;3.83;;
1993;SDS011;998;49.906;10.908;2022-07-30T15:12:18;5.70;;;3.70;;
1993;SDS011;998;49.906;10.908;2022-07-30T15:19:00;6.23;;;3.60;;
1993;SDS011;998;49.906;10.908;2022-07-30T15:21:26;9.50;;;3.90;;
1993;SDS011;998;49.906;10.908;2022-07-30T15:26:38;6.07;;;3.57;;
1993;SDS011;998;49.906;10.908;2022-07-30T15:29:05;4.73;;;3.30;;
1993;SDS011;998;49.906;10.908;2022-07-30T15:31:33;4.40;;;3.23;;
1993;SDS011;998;49.906;10.908;2022-07-30T15:34:00;7.40;;;4.47;;
1993;SDS011;998;49.906;10.908;2022-07-30T15:36:27;5.37;;;4.30;;
1993;SDS011;998;49.906;10.908;2022-07-30T15:38:54;8.43;;;5.60;;
1993;SDS011;998;49.906;10.908;2022-07-30T15:41:21;16.60;;;7.40;;
1993;SDS011;998;49.906;10.908;2022-07-30T15:43:49;17.23;;;7.70;;
1993;SDS011;998;49.906;10.908;2022-07-30T15:46:16;10.83;;;5.13;;
1993;SDS011;998;49.906;10.908;2022-07-30T15:48:43;7.00;;;5.20;;
1993;SDS011;998;49.906;10.908;2022-07-30T15:51:10;8.13;;;4.87;;
1993;SDS011;998;49.906;10.908;2022-07-30T15:53:37;7.10;;;4.60;;
1993;SDS011;998;49.906;10.908;2022-07-30T15:56:04;5.80;;;4.57;;
1993;SDS011;998;49.906;10.908;2022-07-30T15:58:31;7.23;;;4.17;;
1993;SDS011;998;49.906;10.908;2022-07-30T16:01:02;6.17;;;3.70;;
1993;SDS011;998;49.906;10.908;2022-07-30T16:03:30;5.00;;;3.77;;
1993;SDS011;998;49.906;10.908;2022-07-30T16:05:56;6.87;;;3.57;;
1993;SDS011;998;49.906;10.908;2022-07-30T16:08:23;5.10;;;3.60;;
1993;SDS011;998;49.906;10.908;2022-07-30T16:10:50;4.27;;;3.53;;
1993;SDS011;998;49.906;10.908;2022-07-30T16:13:17;5.53;;;4.23;;
1993;SDS011;998;49.906;10.908;2022-07-30T16:15:44;6.57;;;3.90;;
1993;SDS011;998;49.906;10.908;2022-07-30T16:18:12;6.43;;;3.90;;
1993;SDS011;998;49.906;10.908;2022-07-30T16:20:39;6.10;;;4.03;;
1993;SDS011;998;49.906;10.908;2022-07-30T16:23:06;5.13;;;4.10;;
1993;SDS011;998;49.906;10.908;2022-07-30T16:25:33;6.67;;;4.50;;
1993;SDS011;998;49.906;10.908;2022-07-30T16:28:01;8.23;;;5.17;;
1993;SDS011;998;49.906;10.908;2022-07-30T16:30:28;9.33;;;6.97;;
1993;SDS011;998;49.906;10.908;2022-07-30T16:32:55;18.23;;;13.30;;
1993;SDS011;998;49.906;10.908;2022-07-30T16:35:23;14.17;;;6.07;;
1993;SDS011;998;49.906;10.908;2022-07-30T16:37:50;6.63;;;4.33;;
1993;SDS011;998;49.906;10.908;2022-07-30T16:40:18;5.33;;;4.40;;
1993;SDS011;998;49.906;10.908;2022-07-30T16:42:45;6.37;;;4.00;;
1993;SDS011;998;49.906;10.908;2022-07-30T16:45:12;6.97;;;4.70;;
1993;SDS011;998;49.906;10.908;2022-07-30T16:47:40;7.20;;;4.70;;
1993;SDS011;998;49.906;10.908;2022-07-30T16:50:07;6.30;;;4.90;;
1993;SDS011;998;49.906;10.908;2022-07-30T16:52:36;10.17;;;4.73;;
1993;SDS011;998;49.906;10.908;2022-07-30T16:55:03;5.07;;;3.60;;
1993;SDS011;998;49.906;10.908;2022-07-30T16:57:30;8.20;;;4.40;;
1993;SDS011;998;49.906;10.908;2022-07-30T16:59:57;8.60;;;4.73;;
1993;SDS011;998;49.906;10.908;2022-07-30T17:02:24;7.90;;;4.47;;
1993;SDS011;998;49.906;10.908;2022-07-30T17:04:51;9.43;;;3.93;;
1993;SDS011;998;49.906;10.908;2022-07-30T17:07:18;9.47;;;4.43;;
1993;SDS011;998;49.906;10.908;2022-07-30T17:09:46;7.23;;;4.07;;
1993;SDS011;998;49.906;10.908;2022-07-30T17:12:14;6.67;;;4.67;;
1993;SDS011;998;49.906;10.908;2022-07-30T17:14:41;10.33;;;6.13;;
1993;SDS011;998;49.906;10.908;2022-07-30T17:17:08;7.43;;;5.13;;
1993;SDS011;998;49.906;10.908;2022-07-30T17:19:36;9.47;;;5.60;;
1993;SDS011;998;49.906;10.908;2022-07-30T17:22:04;10.80;;;4.93;;
1993;SDS011;998;49.906;10.908;2022-07-30T17:24:31;6.43;;;4.33;;
1993;SDS011;998;49.906;10.908;2022-07-30T17:26:59;5.77;;;3.90;;
1993;SDS011;998;49.906;10.908;2022-07-30T17:29:26;5.70;;;4.50;;
1993;SDS011;998;49.906;10.908;2022-07-30T17:31:53;6.30;;;4.37;;
1993;SDS011;998;49.906;10.908;2022-07-30T17:34:20;9.07;;;4.47;;
1993;SDS011;998;49.906;10.908;2022-07-30T17:36:47;5.70;;;3.60;;
1993;SDS011;998;49.906;10.908;2022-07-30T17:39:15;9.13;;;4.30;;
1993;SDS011;998;49.906;10.908;2022-07-30T17:41:42;5.00;;;3.80;;
1993;SDS011;998;49.906;10.908;2022-07-30T17:44:11;4.63;;;3.40;;
1993;SDS011;998;49.906;10.908;2022-07-30T17:46:38;5.40;;;3.63;;
1993;SDS011;998;49.906;10.908;2022-07-30T17:49:04;4.90;;;3.53;;
1993;SDS011;998;49.906;10.908;2022-07-30T17:51:31;5.83;;;4.23;;
1993;SDS011;998;49.906;10.908;2022-07-30T17:54:00;5.70;;;4.87;;
1993;SDS011;998;49.906;10.908;2022-07-30T17:56:27;5.17;;;4.10;;
1993;SDS011;998;49.906;10.908;2022-07-30T17:58:54;6.50;;;4.80;;
1993;SDS011;998;49.906;10.908;2022-07-30T18:01:23;8.47;;;4.70;;
1993;SDS011;998;49.906;10.908;2022-07-30T18:03:50;7.33;;;4.87;;
1993;SDS011;998;49.906;10.908;2022-07-30T18:06:18;16.53;;;8.90;;
1993;SDS011;998;49.906;10.908;2022-07-30T18:08:45;6.50;;;4.50;;
1993;SDS011;998;49.906;10.908;2022-07-30T18:11:12;7.03;;;4.40;;
1993;SDS011;998;49.906;10.908;2022-07-30T18:13:39;6.53;;;3.80;;
1993;SDS011;998;49.906;10.908;2022-07-30T18:16:06;6.70;;;3.80;;
1993;SDS011;998;49.906;10.908;2022-07-30T18:18:36;5.23;;;3.77;;
1993;SDS011;998;49.906;10.908;2022-07-30T18:21:03;4.23;;;3.60;;
1993;SDS011;998;49.906;10.908;2022-07-30T18:23:31;4.37;;;3.30;;
1993;SDS011;998;49.906;10.908;2022-07-30T18:25:58;5.73;;;3.00;;
1993;SDS011;998;49.906;10.908;2022-07-30T18:28:25;10.97;;;4.20;;
1993;SDS011;998;49.906;10.908;2022-07-30T18:30:52;4.73;;;2.93;;
1993;SDS011;998;49.906;10.908;2022-07-30T18:33:20;4.83;;;3.17;;
1993;SDS011;998;49.906;10.908;2022-07-30T18:35:48;4.83;;;3.47;;
1993;SDS011;998;49.906;10.908;2022-07-30T18:38:15;6.50;;;3.57;;
1993;SDS011;998;49.906;10.908;2022-07-30T18:40:42;4.30;;;3.33;;
1993;SDS011;998;49.906;10.908;2022-07-30T18:43:21;6.00;;;3.27;;
1993;SDS011;998;49.906;10.908;2022-07-30T18:45:49;6.80;;;3.10;;
1993;SDS011;998;49.906;10.908;2022-07-30T18:48:16;4.30;;;2.80;;
1993;SDS011;998;49.906;10.908;2022-07-30T18:50:43;4.90;;;3.50;;
1993;SDS011;998;49.906;10.908;2022-07-30T18:53:11;4.70;;;3.70;;
1993;SDS011;998;49.906;10.908;2022-07-30T18:55:38;4.77;;;3.50;;
1993;SDS011;998;49.906;10.908;2022-07-30T18:58:05;6.47;;;4.10;;
1993;SDS011;998;49.906;10.908;2022-07-30T19:00:32;4.93;;;3.93;;
1993;SDS011;998;49.906;10.908;2022-07-30T19:02:59;11.47;;;9.57;;
1993;SDS011;998;49.906;10.908;2022-07-30T19:05:26;6.53;;;4.80;;
1993;SDS011;998;49.906;10.908;2022-07-30T19:07:56;5.90;;;4.13;;
1993;SDS011;998;49.906;10.908;2022-07-30T19:10:25;5.63;;;4.43;;
1993;SDS011;998;49.906;10.908;2022-07-30T19:12:52;5.63;;;3.80;;
1993;SDS011;998;49.906;10.908;2022-07-30T19:15:19;5.17;;;4.27;;
1993;SDS011;998;49.906;10.908;2022-07-30T19:17:46;8.20;;;4.67;;
1993;SDS011;998;49.906;10.908;2022-07-30T19:20:15;5.80;;;5.07;;
1993;SDS011;998;49.906;10.908;2022-07-30T19:22:42;6.70;;;4.90;;
1993;SDS011;998;49.906;10.908;2022-07-30T19:25:10;6.87;;;5.37;;
1993;SDS011;998;49.906;10.908;2022-07-30T19:27:41;6.03;;;4.60;;
1993;SDS011;998;49.906;10.908;2022-07-30T19:30:11;7.57;;;5.80;;
1993;SDS011;998;49.906;10.908;2022-07-30T19:32:38;5.77;;;4.20;;
1993;SDS011;998;49.906;10.908;2022-07-30T19:35:05;4.80;;;4.20;;
1993;SDS011;998;49.906;10.908;2022-07-30T19:37:33;5.93;;;4.17;;
1993;SDS011;998;49.906;10.908;2022-07-30T19:40:01;5.33;;;4.10;;
1993;SDS011;998;49.906;10.908;2022-07-30T19:42:28;9.73;;;4.20;;
1993;SDS011;998;49.906;10.908;2022-07-30T19:44:57;5.43;;;4.63;;
1993;SDS011;998;49.906;10.908;2022-07-30T19:47:24;7.27;;;4.97;;
1993;SDS011;998;49.906;10.908;2022-07-30T19:49:51;6.23;;;4.93;;
1993;SDS011;998;49.906;10.908;2022-07-30T19:52:18;7.03;;;5.00;;
1993;SDS011;998;49.906;10.908;2022-07-30T19:54:45;5.17;;;4.30;;
1993;SDS011;998;49.906;10.908;2022-07-30T19:57:12;5.20;;;4.37;;
1993;SDS011;998;49.906;10.908;2022-07-30T19:59:39;5.30;;;4.60;;
1993;SDS011;998;49.906;10.908;2022-07-30T20:02:10;7.50;;;4.17;;
1993;SDS011;998;49.906;10.908;2022-07-30T20:04:39;5.70;;;4.57;;
1993;SDS011;998;49.906;10.908;2022-07-30T20:07:06;5.47;;;4.23;;
1993;SDS011;998;49.906;10.908;2022-07-30T20:09:33;5.20;;;4.37;;
1993;SDS011;998;49.906;10.908;2022-07-30T20:12:00;7.80;;;5.60;;
1993;SDS011;998;49.906;10.908;2022-07-30T20:14:27;8.63;;;6.47;;
1993;SDS011;998;49.906;10.908;2022-07-30T20:16:54;6.40;;;5.20;;
1993;SDS011;998;49.906;10.908;2022-07-30T20:25:09;5.40;;;4.90;;
1993;SDS011;998;49.906;10.908;2022-07-30T20:27:36;5.53;;;4.80;;
1993;SDS011;998;49.906;10.908;2022-07-30T20:30:05;6.50;;;5.23;;
1993;SDS011;998;49.906;10.908;2022-07-30T20:32:34;7.57;;;5.70;;
1993;SDS011;998;49.906;10.908;2022-07-30T20:35:01;6.47;;;4.67;;
1993;SDS011;998;49.906;10.908;2022-07-30T20:37:28;12.77;;;9.03;;
1993;SDS011;998;49.906;10.908;2022-07-30T20:39:56;15.23;;;8.67;;
1993;SDS011;998;49.906;10.908;2022-07-30T20:42:23;10.30;;;5.43;;
1993;SDS011;998;49.906;10.908;2022-07-30T20:44:50;6.17;;;5.50;;
1993;SDS011;998;49.906;10.908;2022-07-30T20:47:20;7.30;;;5.27;;
1993;SDS011;998;49.906;10.908;2022-07-30T20:49:47;11.37;;;6.63;;
1993;SDS011;998;49.906;10.908;2022-07-30T20:52:15;6.13;;;5.37;;
1993;SDS011;998;49.906;10.908;2022-07-30T20:54:42;6.87;;;6.17;;
1993;SDS011;998;49.906;10.908;2022-07-30T20:57:10;7.00;;;5.80;;
1993;SDS011;998;49.906;10.908;2022-07-30T20:59:37;6.93;;;5.97;;
1993;SDS011;998;49.906;10.908;2022-07-30T21:02:05;10.03;;;6.33;;
1993;SDS011;998;49.906;10.908;2022-07-30T21:04:32;6.10;;;5.50;;
1993;SDS011;998;49.906;10.908;2022-07-30T21:06:59;11.20;;;6.40;;
1993;SDS011;998;49.906;10.908;2022-07-30T21:09:26;6.27;;;5.57;;
1993;SDS011;998;49.906;10.908;2022-07-30T21:11:54;6.47;;;5.57;;
1993;SDS011;998;49.906;10.908;2022-07-30T21:14:22;9.20;;;5.60;;
1993;SDS011;998;49.906;10.908;2022-07-30T21:16:49;6.90;;;5.27;;
1993;SDS011;998;49.906;10.908;2022-07-30T21:19:16;6.33;;;5.27;;
1993;SDS011;998;49.906;10.908;2022-07-30T21:21:44;6.00;;;5.40;;
1993;SDS011;998;49.906;10.908;2022-07-30T21:24:12;5.97;;;5.33;;
1993;SDS011;998;49.906;10.908;2022-07-30T21:26:42;5.67;;;5.07;;
1993;SDS011;998;49.906;10.908;2022-07-30T21:29:10;7.03;;;5.10;;
1993;SDS011;998;49.906;10.908;2022-07-30T21:31:39;7.00;;;4.90;;
1993;SDS011;998;49.906;10.908;2022-07-30T21:34:06;6.20;;;5.00;;
1993;SDS011;998;49.906;10.908;2022-07-30T21:36:33;12.10;;;5.37;;
1993;SDS011;998;49.906;10.908;2022-07-30T21:39:00;5.37;;;4.70;;
1993;SDS011;998;49.906;10.908;2022-07-30T21:41:27;5.10;;;4.10;;